Majesty of the Seas — C6FZ8 — position and weather

sailwx.info

Track history (hours):
 
Tides and Currents Weather Stations Pressure Air Temp Water Temp Dewpoint Dewpoint Depression Visibility Wind Speed Wind Dir Waves Ship Positions

Majesty of the Seas (Bahamas)

Last reported at 2014-Aug-02 00:33 UTC. Time now 2014-Aug-02 04:43 UTC.
Position N 26°03' W 079°34'.

Length 268 m; draft 7.6 m.

Type: Passenger vessel. MMSI: 311734000.

Date/timePositionNaut miles runAvg speedWind from/ knotsBaromVisibWave heightAir tempDewpointWater temp
2014-Aug-02 00:33N 26°03' W 079°34'1010.3
2014-Aug-01 23:33N 25°58' W 079°43'1111.1
2014-Aug-01 22:33N 25°52' W 079°54'10 9.9
2014-Aug-01 21:33N 25°47' W 080°04'6 2.2
2014-Aug-01 18:33N 25°47' W 080°11'0 0.0
2014-Aug-01 17:33N 25°47' W 080°11'0 0.0
2014-Aug-01 16:15N 25°47' W 080°11'0 0.0
2014-Aug-01 15:33N 25°47' W 080°11'0 0.0
2014-Aug-01 14:33N 25°47' W 080°11'0 0.0
2014-Aug-01 13:33N 25°47' W 080°11'0 0.0
2014-Aug-01 12:24N 25°47' W 080°11'0 0.0
2014-Aug-01 11:09N 25°47' W 080°11'0 0.0
2014-Aug-01 10:33N 25°47' W 080°11'5 5.3
2014-Aug-01 09:33N 25°46' W 080°05'1010.2
2014-Aug-01 08:33N 25°41' W 079°55'16 0.6
2014-Jul-31 03:07N 25°41' W 079°37'916.0
2014-Jul-31 02:34N 25°48' W 079°30'1716.5
2014-Jul-31 01:34N 26°00' W 079°18'1717.2
2014-Jul-31 00:34N 26°11' W 079°03'26 0.5
2014-Jul-28 23:33N 26°00' W 079°30'1515.3
2014-Jul-28 22:33N 25°54' W 079°45'1515.4
2014-Jul-28 21:33N 25°48' W 080°01'9 9.0
2014-Jul-28 20:33N 25°47' W 080°11'0 0.0
2014-Jul-28 19:07N 25°47' W 080°11'0 0.0
2014-Jul-28 18:25N 25°47' W 080°11'0 0.0
2014-Jul-28 17:25N 25°47' W 080°11'0 0.0
2014-Jul-28 16:25N 25°47' W 080°11'0 0.0
2014-Jul-28 15:13N 25°47' W 080°11'0 0.0
2014-Jul-28 14:13N 25°47' W 080°11'0 0.0
2014-Jul-28 13:13N 25°47' W 080°11'0 0.0
2014-Jul-28 12:25N 25°47' W 080°11'0 0.0
2014-Jul-28 11:13N 25°47' W 080°11'0 0.4
2014-Jul-28 10:33N 25°47' W 080°11'8 8.1
2014-Jul-28 09:33N 25°48' W 080°02'1313.4
2014-Jul-28 08:34N 25°53' W 079°48'1413.9
2014-Jul-28 07:33N 25°59' W 079°34'1514.9
2014-Jul-28 06:32N 26°05' W 079°19'1615.9
2014-Jul-28 05:32N 26°10' W 079°02'1716.3
2014-Jul-28 04:31N 26°08' W 078°44'1516.0
2014-Jul-28 03:33N 26°03' W 078°28'1515.2
2014-Jul-28 02:33N 25°59' W 078°11'1615.1
2014-Jul-28 01:28N 25°56' W 077°53'92 1.9
2014-Jul-26 00:33N 26°02' W 079°36'1110.5
2014-Jul-25 23:33N 25°57' W 079°46'1111.0
2014-Jul-25 22:33N 25°50' W 079°55'9 9.2
2014-Jul-25 21:33N 25°46' W 080°05'5 4.5
2014-Jul-25 20:22N 25°47' W 080°11'0 0.0
2014-Jul-25 19:25N 25°47' W 080°11'0 0.0
2014-Jul-25 18:25N 25°47' W 080°11'0 0.0
2014-Jul-25 17:13N 25°47' W 080°11'0 0.0
2014-Jul-25 16:28N 25°47' W 080°11'0 0.0
2014-Jul-25 15:31N 25°47' W 080°11'0 0.0
2014-Jul-25 14:31N 25°47' W 080°11'0 0.0
2014-Jul-25 13:31N 25°47' W 080°11'0 0.0
2014-Jul-25 12:31N 25°47' W 080°11'0 0.0
2014-Jul-25 11:31N 25°47' W 080°11'0 0.1
2014-Jul-25 10:33N 25°47' W 080°11'6 6.1
2014-Jul-25 09:32N 25°46' W 080°04'9 9.5
2014-Jul-25 08:33N 25°41' W 079°55'23 0.8
2014-Jul-24 02:33N 25°47' W 079°30'3516.4
2014-Jul-24 00:25N 26°10' W 079°01'  
Track history (hours):
 
Tides and Currents Weather Stations Pressure Air Temp Water Temp Dewpoint Dewpoint Depression Visibility Wind Speed Wind Dir Waves Ship Positions

Majesty of the Seas (Bahamas)

Last reported at 2014-Aug-02 00:33 UTC. Time now 2014-Aug-02 04:43 UTC.
Position N 26°03' W 079°34'.

Length 268 m; draft 7.6 m.

Type: Passenger vessel. MMSI: 311734000.

Date/timePositionNaut miles runAvg speedWind from/ knotsBaromVisibWave heightAir tempDewpointWater temp
2014-Aug-02 00:33N 26°03' W 079°34'1010.3
2014-Aug-01 23:33N 25°58' W 079°43'1111.1
2014-Aug-01 22:33N 25°52' W 079°54'10 9.9
2014-Aug-01 21:33N 25°47' W 080°04'6 2.2
2014-Aug-01 18:33N 25°47' W 080°11'0 0.0
2014-Aug-01 17:33N 25°47' W 080°11'0 0.0
2014-Aug-01 16:15N 25°47' W 080°11'0 0.0
2014-Aug-01 15:33N 25°47' W 080°11'0 0.0
2014-Aug-01 14:33N 25°47' W 080°11'0 0.0
2014-Aug-01 13:33N 25°47' W 080°11'0 0.0
2014-Aug-01 12:24N 25°47' W 080°11'0 0.0
2014-Aug-01 11:09N 25°47' W 080°11'0 0.0
2014-Aug-01 10:33N 25°47' W 080°11'5 5.3
2014-Aug-01 09:33N 25°46' W 080°05'1010.2
2014-Aug-01 08:33N 25°41' W 079°55'16 0.6
2014-Jul-31 03:07N 25°41' W 079°37'916.0
2014-Jul-31 02:34N 25°48' W 079°30'1716.5
2014-Jul-31 01:34N 26°00' W 079°18'1717.2
2014-Jul-31 00:34N 26°11' W 079°03'26 0.5
2014-Jul-28 23:33N 26°00' W 079°30'1515.3
2014-Jul-28 22:33N 25°54' W 079°45'1515.4
2014-Jul-28 21:33N 25°48' W 080°01'9 9.0
2014-Jul-28 20:33N 25°47' W 080°11'0 0.0
2014-Jul-28 19:07N 25°47' W 080°11'0 0.0
2014-Jul-28 18:25N 25°47' W 080°11'0 0.0
2014-Jul-28 17:25N 25°47' W 080°11'0 0.0
2014-Jul-28 16:25N 25°47' W 080°11'0 0.0
2014-Jul-28 15:13N 25°47' W 080°11'0 0.0
2014-Jul-28 14:13N 25°47' W 080°11'0 0.0
2014-Jul-28 13:13N 25°47' W 080°11'0 0.0
2014-Jul-28 12:25N 25°47' W 080°11'0 0.0
2014-Jul-28 11:13N 25°47' W 080°11'0 0.4
2014-Jul-28 10:33N 25°47' W 080°11'8 8.1
2014-Jul-28 09:33N 25°48' W 080°02'1313.4
2014-Jul-28 08:34N 25°53' W 079°48'1413.9
2014-Jul-28 07:33N 25°59' W 079°34'1514.9
2014-Jul-28 06:32N 26°05' W 079°19'1615.9
2014-Jul-28 05:32N 26°10' W 079°02'1716.3
2014-Jul-28 04:31N 26°08' W 078°44'1516.0
2014-Jul-28 03:33N 26°03' W 078°28'1515.2
2014-Jul-28 02:33N 25°59' W 078°11'1615.1
2014-Jul-28 01:28N 25°56' W 077°53'92 1.9
2014-Jul-26 00:33N 26°02' W 079°36'1110.5
2014-Jul-25 23:33N 25°57' W 079°46'1111.0
2014-Jul-25 22:33N 25°50' W 079°55'9 9.2
2014-Jul-25 21:33N 25°46' W 080°05'5 4.5
2014-Jul-25 20:22N 25°47' W 080°11'0 0.0
2014-Jul-25 19:25N 25°47' W 080°11'0 0.0
2014-Jul-25 18:25N 25°47' W 080°11'0 0.0
2014-Jul-25 17:13N 25°47' W 080°11'0 0.0
2014-Jul-25 16:28N 25°47' W 080°11'0 0.0
2014-Jul-25 15:31N 25°47' W 080°11'0 0.0
2014-Jul-25 14:31N 25°47' W 080°11'0 0.0
2014-Jul-25 13:31N 25°47' W 080°11'0 0.0
2014-Jul-25 12:31N 25°47' W 080°11'0 0.0
2014-Jul-25 11:31N 25°47' W 080°11'0 0.1
2014-Jul-25 10:33N 25°47' W 080°11'6 6.1
2014-Jul-25 09:32N 25°46' W 080°04'9 9.5
2014-Jul-25 08:33N 25°41' W 079°55'23 0.8
2014-Jul-24 02:33N 25°47' W 079°30'3516.4
2014-Jul-24 00:25N 26°10' W 079°01'  

Dump ship's entire track history